Time;durP1;ratioP1;P1;durP2;ratioP2;P2;SDS_P1;SDS_P2;PMS_P1;PMS_P2;Temp;Humidity;BMP_temperature;BMP_pressure;BME280_temperature;BME280_humidity;BME280_pressure;Samples;Min_cycle;Max_cycle;Signal;HPM_P1;HPM_P2
2022/12/17 13:06:34;;;;;;;0.60;0.60;;;;;;;12.08;100.00;99476.06;5069706;28;20210;-69
2022/12/17 13:09:05;;;;;;;0.40;0.40;;;;;;;12.18;100.00;99504.84;5070014;28;20204;-69
2022/12/17 13:11:37;;;;;;;0.93;0.93;;;;;;;12.28;100.00;99500.25;5071015;28;20626;-69
2022/12/17 13:14:13;;;;;;;0.70;0.70;;;;;;;12.33;100.00;99494.06;5067997;28;20200;-69
2022/12/17 13:16:53;;;;;;;0.97;0.97;;;;;;;12.46;100.00;99495.28;5068475;28;20294;-69
2022/12/17 13:19:34;;;;;;;0.53;0.53;;;;;;;12.50;100.00;99501.97;5067102;28;20615;-69
2022/12/17 13:22:26;;;;;;;0.60;0.60;;;;;;;12.57;100.00;99492.31;5064580;28;20736;-69
2022/12/17 13:24:57;;;;;;;0.93;0.93;;;;;;;12.60;100.00;99485.31;5064495;28;20242;-69
2022/12/17 13:27:29;;;;;;;0.40;0.40;;;;;;;12.67;100.00;99495.38;5069280;28;20557;-68
2022/12/17 13:29:57;;;;;;;0.53;0.53;;;;;;;12.69;100.00;99503.91;5069222;28;20732;-69
2022/12/17 13:32:30;;;;;;;0.83;0.83;;;;;;;12.76;100.00;99510.50;5068850;28;20274;-69
2022/12/17 13:35:20;;;;;;;0.50;0.50;;;;;;;12.82;100.00;99523.13;5068462;28;20265;-69
2022/12/17 13:37:59;;;;;;;0.57;0.57;;;;;;;12.94;100.00;99520.09;5071444;28;20219;-69
2022/12/17 13:40:39;;;;;;;0.50;0.50;;;;;;;13.01;100.00;99503.53;5069498;28;20259;-68
2022/12/17 13:43:19;;;;;;;0.70;0.70;;;;;;;13.00;100.00;99491.53;5063051;28;20196;-69
2022/12/17 13:45:46;;;;;;;0.40;0.40;;;;;;;13.12;100.00;99501.38;5068595;28;20191;-70
2022/12/17 13:48:22;;;;;;;1.27;1.27;;;;;;;13.19;100.00;99497.69;5064755;28;20204;-69
2022/12/17 13:50:58;;;;;;;0.57;0.57;;;;;;;13.20;100.00;99509.66;5069987;28;20544;-69
2022/12/17 13:53:25;;;;;;;0.33;0.33;;;;;;;13.25;100.00;99506.94;5064754;28;20266;-69
2022/12/17 13:55:54;;;;;;;0.50;0.50;;;;;;;13.16;100.00;99487.50;5070694;28;20689;-72
2022/12/17 13:58:26;;;;;;;0.40;0.40;;;;;;;13.24;100.00;99511.22;5070511;28;20259;-69
2022/12/17 14:01:04;;;;;;;0.50;0.50;;;;;;;13.14;100.00;99515.91;5064687;28;20269;-69
2022/12/17 14:03:32;;;;;;;0.50;0.50;;;;;;;13.08;100.00;99512.69;5063737;28;20258;-69
2022/12/17 14:06:03;;;;;;;0.33;0.33;;;;;;;13.04;100.00;99505.97;5068097;28;20195;-69
2022/12/17 14:08:33;;;;;;;0.53;0.53;;;;;;;12.96;100.00;99501.13;5067585;28;20200;-69
2022/12/17 14:13:42;;;;;;;0.60;0.60;;;;;;;12.91;100.00;99507.34;5065353;28;20202;-68
2022/12/17 14:16:09;;;;;;;1.23;1.23;;;;;;;12.88;100.00;99520.31;5068424;28;20612;-69
2022/12/17 14:18:43;;;;;;;0.47;0.47;;;;;;;12.90;100.00;99515.94;5066689;28;20208;-69
2022/12/17 14:21:10;;;;;;;0.60;0.60;;;;;;;12.91;100.00;99522.78;5069967;28;20242;-69
2022/12/17 14:23:37;;;;;;;0.60;0.60;;;;;;;12.92;100.00;99511.59;5068013;28;20200;-69
2022/12/17 14:26:04;;;;;;;0.60;0.60;;;;;;;13.05;100.00;99533.41;5070688;28;20591;-69
2022/12/17 14:28:45;;;;;;;0.80;0.80;;;;;;;13.06;100.00;99532.47;5070053;28;20679;-69
2022/12/17 14:31:19;;;;;;;0.97;0.97;;;;;;;13.08;100.00;99525.56;5070643;28;20224;-69
2022/12/17 14:34:00;;;;;;;0.73;0.73;;;;;;;13.08;100.00;99521.28;5070951;28;20192;-69
2022/12/17 14:36:29;;;;;;;0.60;0.60;;;;;;;13.08;100.00;99520.41;5070762;28;20262;-69
2022/12/17 14:38:59;;;;;;;1.23;1.23;;;;;;;13.08;100.00;99516.13;5070310;28;20196;-69
2022/12/17 14:44:18;;;;;;;1.00;1.00;;;;;;;13.11;100.00;99528.03;5070668;28;20199;-69
2022/12/17 14:46:46;;;;;;;1.20;1.20;;;;;;;13.14;100.00;99522.78;5070484;28;20199;-69
2022/12/17 14:49:19;;;;;;;0.87;0.87;;;;;;;12.91;100.00;99518.47;5073264;28;20207;-69
2022/12/17 14:51:47;;;;;;;0.57;0.57;;;;;;;12.91;100.00;99543.38;5073945;28;20192;-69
2022/12/17 14:54:30;;;;;;;1.73;1.57;;;;;;;12.84;100.00;99541.91;5074483;28;20678;-69
2022/12/17 14:56:58;;;;;;;2.97;2.87;;;;;;;12.74;100.00;99559.41;5070783;28;20593;-69
2022/12/17 14:59:30;;;;;;;0.80;0.80;;;;;;;12.68;100.00;99577.66;5073980;28;20265;-69
2022/12/17 15:01:59;;;;;;;1.03;1.03;;;;;;;12.62;100.00;99591.56;5074218;28;20223;-69
2022/12/17 15:04:27;;;;;;;0.40;0.40;;;;;;;12.60;100.00;99611.34;5073906;28;20204;-69
2022/12/17 15:06:55;;;;;;;0.80;0.80;;;;;;;12.68;100.00;99629.09;5073368;28;20204;-70
2022/12/17 15:09:22;;;;;;;0.50;0.50;;;;;;;12.68;100.00;99633.38;5071563;28;20216;-69
2022/12/17 15:11:49;;;;;;;0.50;0.50;;;;;;;12.69;100.00;99627.34;5073846;28;20553;-69
2022/12/17 15:14:16;;;;;;;0.60;0.60;;;;;;;12.71;100.00;99639.25;5073992;28;20196;-68
2022/12/17 15:16:42;;;;;;;0.60;0.60;;;;;;;12.75;100.00;99635.69;5074217;28;20243;-69
2022/12/17 15:19:09;;;;;;;1.07;1.07;;;;;;;12.76;100.00;99645.09;5073333;28;20200;-69
2022/12/17 15:21:37;;;;;;;1.00;1.00;;;;;;;12.77;100.00;99659.63;5071856;28;20207;-68
2022/12/17 15:24:10;;;;;;;0.97;0.97;;;;;;;12.79;100.00;99667.31;5072654;28;20211;-69
2022/12/17 15:26:37;;;;;;;1.27;1.27;;;;;;;12.82;100.00;99682.63;5073355;28;20197;-69
2022/12/17 15:29:03;;;;;;;0.60;0.60;;;;;;;12.71;100.00;99680.44;5069366;28;20215;-68
2022/12/17 15:31:31;;;;;;;4.30;1.03;;;;;;;12.65;100.00;99685.78;5068216;28;20208;-68
2022/12/17 15:33:59;;;;;;;0.60;0.60;;;;;;;12.60;100.00;99709.06;5070263;28;20207;-69
2022/12/17 15:36:26;;;;;;;0.90;0.90;;;;;;;12.59;100.00;99697.13;5066909;28;20228;-69
2022/12/17 15:38:54;;;;;;;1.03;1.03;;;;;;;12.46;100.00;99677.84;5067135;28;20204;-69
2022/12/17 15:44:05;;;;;;;0.50;0.50;;;;;;;12.28;100.00;99623.66;5073183;28;20583;-70
2022/12/17 15:46:32;;;;;;;0.70;0.70;;;;;;;12.26;100.00;99631.41;5066222;28;20209;-69
2022/12/17 15:48:59;;;;;;;0.73;0.73;;;;;;;12.27;100.00;99643.38;5071075;28;20205;-69
2022/12/17 15:51:25;;;;;;;1.10;1.10;;;;;;;12.31;100.00;99644.91;5065524;28;20205;-69
2022/12/17 15:53:56;;;;;;;1.10;0.70;;;;;;;12.28;100.00;99621.06;5066862;28;20258;-69
2022/12/17 15:56:25;;;;;;;0.83;0.83;;;;;;;12.16;100.00;99609.44;5071566;28;20212;-69
2022/12/17 15:58:52;;;;;;;1.60;1.17;;;;;;;11.98;100.00;99579.25;5071179;28;20208;-69
2022/12/17 16:01:19;;;;;;;0.40;0.40;;;;;;;11.91;100.00;99526.38;5069886;28;20211;-70
2022/12/17 16:03:46;;;;;;;0.90;0.90;;;;;;;11.75;100.00;99545.75;5070419;28;20236;-69
2022/12/17 16:06:13;;;;;;;0.70;0.70;;;;;;;11.69;100.00;99566.47;5067388;28;20203;-69
2022/12/17 16:08:40;;;;;;;0.63;0.63;;;;;;;11.71;100.00;99580.97;5068648;28;20218;-69
2022/12/17 16:11:10;;;;;;;1.17;1.17;;;;;;;11.68;100.00;99585.31;5068819;28;20579;-69
2022/12/17 16:13:37;;;;;;;0.70;0.70;;;;;;;11.75;100.00;99586.84;5066504;28;20208;-69
2022/12/17 16:16:05;;;;;;;1.23;1.23;;;;;;;11.67;100.00;99568.22;5070582;28;20235;-68
2022/12/17 16:18:32;;;;;;;0.50;0.50;;;;;;;11.68;100.00;99564.78;5066986;28;20211;-69
2022/12/17 16:21:03;;;;;;;0.93;0.90;;;;;;;11.77;100.00;99591.03;5070420;28;20212;-69
2022/12/17 16:23:32;;;;;;;0.77;0.77;;;;;;;11.82;100.00;99608.88;5071141;28;20580;-69
2022/12/17 16:26:01;;;;;;;0.53;0.53;;;;;;;11.85;100.00;99629.31;5070410;28;20587;-69
2022/12/17 16:28:32;;;;;;;1.17;1.17;;;;;;;11.82;100.00;99620.00;5071962;28;20234;-69
2022/12/17 16:31:02;;;;;;;0.40;0.40;;;;;;;11.91;100.00;99618.84;5069336;28;20254;-68
2022/12/17 16:33:35;;;;;;;1.77;1.77;;;;;;;11.82;100.00;99614.84;5070428;28;20704;-69
2022/12/17 16:36:03;;;;;;;0.50;0.50;;;;;;;11.78;100.00;99617.56;5069134;28;20776;-68
2022/12/17 16:38:30;;;;;;;0.90;0.90;;;;;;;11.87;100.00;99622.41;5068551;28;20575;-69
2022/12/17 16:40:57;;;;;;;1.33;1.33;;;;;;;11.83;100.00;99613.09;5068643;28;20261;-69
2022/12/17 16:43:24;;;;;;;3.40;0.90;;;;;;;11.81;100.00;99643.16;5070754;28;20223;-70
2022/12/17 16:45:53;;;;;;;0.60;0.60;;;;;;;11.74;100.00;99634.78;5068358;28;20225;-69
2022/12/17 16:48:21;;;;;;;1.03;1.03;;;;;;;11.76;100.00;99630.44;5069981;28;20204;-69
2022/12/17 16:50:49;;;;;;;0.60;0.60;;;;;;;11.83;100.00;99636.22;5069675;28;20587;-69
2022/12/17 16:53:17;;;;;;;0.87;0.87;;;;;;;11.52;100.00;99650.00;5069747;28;20716;-70
2022/12/17 16:55:45;;;;;;;1.63;1.60;;;;;;;11.25;100.00;99617.44;5069937;28;20716;-69
2022/12/17 16:58:13;;;;;;;0.73;0.73;;;;;;;11.37;100.00;99641.91;5070987;28;20200;-69
2022/12/17 17:00:42;;;;;;;0.60;0.60;;;;;;;11.29;100.00;99644.69;5070966;28;20556;-69
2022/12/17 17:03:10;;;;;;;0.70;0.70;;;;;;;11.20;100.00;99639.84;5066807;28;20723;-68
2022/12/17 17:05:40;;;;;;;0.60;0.60;;;;;;;11.22;100.00;99650.88;5062417;28;20585;-70
2022/12/17 17:08:07;;;;;;;0.53;0.53;;;;;;;11.18;100.00;99651.84;5068636;28;20204;-69
2022/12/17 17:10:36;;;;;;;0.40;0.40;;;;;;;11.10;100.00;99653.81;5067034;28;20195;-69
2022/12/17 17:13:04;;;;;;;0.87;0.87;;;;;;;11.06;100.00;99667.59;5063412;28;20204;-69
2022/12/17 17:15:31;;;;;;;0.63;0.63;;;;;;;11.03;100.00;99671.09;5066983;28;20220;-70
2022/12/17 17:18:03;;;;;;;0.70;0.70;;;;;;;10.99;100.00;99661.78;5068682;28;20744;-69
2022/12/17 17:20:34;;;;;;;3.00;0.83;;;;;;;10.92;100.00;99662.03;5068137;28;20246;-69
2022/12/17 17:23:01;;;;;;;0.70;0.70;;;;;;;11.08;100.00;99663.28;5070730;28;20214;-70
2022/12/17 17:25:29;;;;;;;0.50;0.50;;;;;;;11.13;100.00;99669.09;5068439;28;20210;-68
2022/12/17 17:27:56;;;;;;;0.40;0.40;;;;;;;11.12;100.00;99672.53;5067939;28;20207;-69
2022/12/17 17:30:23;;;;;;;1.40;1.03;;;;;;;11.15;100.00;99675.03;5069244;28;20668;-69
2022/12/17 17:32:50;;;;;;;0.87;0.87;;;;;;;11.24;100.00;99671.38;5065645;28;20200;-69
2022/12/17 17:35:17;;;;;;;1.70;1.23;;;;;;;11.26;100.00;99667.88;5069950;28;20615;-69
2022/12/17 17:37:48;;;;;;;1.23;1.23;;;;;;;11.30;100.00;99656.66;5069721;28;20200;-65
2022/12/17 17:40:15;;;;;;;1.03;1.03;;;;;;;11.27;100.00;99664.44;5069973;28;20203;-65
2022/12/17 17:42:41;;;;;;;0.60;0.60;;;;;;;11.23;100.00;99670.53;5067865;28;20200;-66
2022/12/17 17:45:09;;;;;;;1.27;1.27;;;;;;;11.30;100.00;99681.47;5070372;28;20204;-65
2022/12/17 17:47:35;;;;;;;0.80;0.80;;;;;;;11.29;100.00;99674.66;5067647;28;20287;-65
2022/12/17 17:50:02;;;;;;;0.93;0.93;;;;;;;11.24;100.00;99664.53;5070127;28;20200;-66
2022/12/17 17:52:29;;;;;;;1.87;1.87;;;;;;;11.16;100.00;99648.50;5068994;28;20269;-65
2022/12/17 17:54:57;;;;;;;1.00;1.00;;;;;;;11.33;100.00;99679.66;5068696;28;20287;-65
2022/12/17 17:57:24;;;;;;;0.67;0.67;;;;;;;11.40;100.00;99688.88;5069265;28;20224;-65
2022/12/17 17:59:52;;;;;;;1.73;1.47;;;;;;;11.39;100.00;99673.50;5066624;28;20212;-65
2022/12/17 18:02:19;;;;;;;0.50;0.50;;;;;;;11.46;100.00;99673.28;5069278;28;20226;-65
2022/12/17 18:04:46;;;;;;;1.20;1.10;;;;;;;11.45;100.00;99696.41;5068786;28;20261;-65
2022/12/17 18:07:12;;;;;;;2.23;2.13;;;;;;;11.39;100.00;99707.72;5070462;28;20199;-65
2022/12/17 18:09:39;;;;;;;0.90;0.90;;;;;;;11.34;100.00;99688.19;5070966;28;20660;-65
2022/12/17 18:14:48;;;;;;;1.47;0.73;;;;;;;11.23;100.00;99691.06;5067820;28;20585;-65
2022/12/17 18:17:15;;;;;;;2.47;1.63;;;;;;;11.20;100.00;99685.16;5065136;28;20223;-65
2022/12/17 18:19:42;;;;;;;1.93;1.83;;;;;;;11.33;100.00;99697.63;5069924;28;20215;-65
2022/12/17 18:22:11;;;;;;;0.60;0.60;;;;;;;11.35;100.00;99695.84;5068876;28;20215;-65
2022/12/17 18:24:38;;;;;;;0.87;0.87;;;;;;;11.39;100.00;99712.00;5069302;28;20210;-65
2022/12/17 18:27:07;;;;;;;1.43;1.37;;;;;;;11.36;100.00;99717.22;5068846;28;20196;-65
2022/12/17 18:29:33;;;;;;;0.70;0.70;;;;;;;11.32;100.00;99726.72;5069427;28;20202;-65
2022/12/17 18:32:01;;;;;;;0.40;0.40;;;;;;;11.33;100.00;99719.88;5068012;28;20600;-66
2022/12/17 18:34:27;;;;;;;0.40;0.40;;;;;;;11.28;100.00;99714.84;5068307;28;20588;-65
2022/12/17 18:36:54;;;;;;;0.80;0.80;;;;;;;11.23;100.00;99705.63;5066852;28;20615;-65
2022/12/17 18:39:25;;;;;;;0.50;0.50;;;;;;;11.22;100.00;99709.91;5069555;28;20683;-65
2022/12/17 18:44:41;;;;;;;0.60;0.60;;;;;;;11.17;100.00;99737.44;5065953;28;20214;-65
2022/12/17 18:47:09;;;;;;;0.70;0.70;;;;;;;11.18;100.00;99748.53;5062660;28;20231;-65
2022/12/17 18:49:36;;;;;;;0.40;0.40;;;;;;;11.18;100.00;99754.47;5064579;28;20586;-65
2022/12/17 18:52:03;;;;;;;0.40;0.40;;;;;;;11.15;100.00;99744.31;5066651;28;20204;-65
2022/12/17 18:54:31;;;;;;;1.00;1.00;;;;;;;11.09;100.00;99759.88;5065166;28;20204;-66
2022/12/17 18:56:58;;;;;;;0.50;0.50;;;;;;;11.07;100.00;99762.50;5069269;28;20626;-65
2022/12/17 18:59:28;;;;;;;0.53;0.53;;;;;;;11.05;100.00;99763.38;5066317;28;20205;-66
2022/12/17 19:01:57;;;;;;;0.50;0.50;;;;;;;11.05;100.00;99761.66;5068996;28;20587;-64
2022/12/17 19:04:24;;;;;;;0.70;0.70;;;;;;;11.03;100.00;99754.91;5064975;28;20204;-65
2022/12/17 19:06:52;;;;;;;0.67;0.67;;;;;;;10.91;100.00;99755.22;5068518;28;20615;-65
2022/12/17 19:09:22;;;;;;;0.40;0.40;;;;;;;10.86;100.00;99746.78;5069149;28;20690;-65
2022/12/17 19:11:49;;;;;;;0.33;0.33;;;;;;;11.01;100.00;99772.91;5069238;28;20200;-65
2022/12/17 19:14:17;;;;;;;1.13;1.13;;;;;;;10.99;100.00;99769.53;5067899;28;20199;-65
2022/12/17 19:16:44;;;;;;;0.60;0.60;;;;;;;10.95;100.00;99772.22;5068580;28;20224;-66
2022/12/17 19:19:13;;;;;;;1.13;1.03;;;;;;;10.93;100.00;99777.38;5068158;28;20556;-65
2022/12/17 19:21:41;;;;;;;0.40;0.40;;;;;;;10.94;100.00;99780.81;5065944;28;20196;-65
2022/12/17 19:24:11;;;;;;;1.60;1.60;;;;;;;10.95;100.00;99787.63;5067104;28;20216;-65
2022/12/17 19:26:38;;;;;;;0.47;0.47;;;;;;;10.91;100.00;99799.69;5067806;28;20204;-65
2022/12/17 19:29:07;;;;;;;0.50;0.50;;;;;;;10.86;100.00;99810.91;5067890;28;20597;-66
2022/12/17 19:31:35;;;;;;;0.57;0.57;;;;;;;10.84;100.00;99800.72;5068520;28;20219;-65
2022/12/17 19:34:04;;;;;;;0.70;0.70;;;;;;;10.82;100.00;99807.59;5068775;28;20232;-64
2022/12/17 19:36:36;;;;;;;1.20;1.20;;;;;;;10.88;100.00;99822.84;5069997;28;20220;-65
2022/12/17 19:39:05;;;;;;;0.90;0.90;;;;;;;10.85;100.00;99815.22;5072401;28;20212;-65
2022/12/17 19:41:33;;;;;;;0.30;0.30;;;;;;;10.85;100.00;99827.19;5072807;28;20204;-66
2022/12/17 19:44:02;;;;;;;0.40;0.40;;;;;;;10.86;100.00;99810.91;5072918;28;21572;-65
2022/12/17 19:46:30;;;;;;;0.60;0.60;;;;;;;10.84;100.00;99805.00;5069371;28;20210;-65
2022/12/17 19:48:57;;;;;;;0.60;0.60;;;;;;;10.83;100.00;99804.13;5072647;28;20204;-65
2022/12/17 19:51:26;;;;;;;1.40;1.40;;;;;;;10.75;100.00;99794.97;5072897;28;20204;-65
2022/12/17 19:53:55;;;;;;;0.77;0.77;;;;;;;10.87;100.00;99828.00;5072846;28;20245;-65
2022/12/17 19:56:24;;;;;;;0.70;0.70;;;;;;;10.87;100.00;99840.81;5072305;28;20681;-65
2022/12/17 19:58:52;;;;;;;0.60;0.60;;;;;;;10.83;100.00;99849.47;5070452;28;20214;-66
2022/12/17 20:01:20;;;;;;;2.13;0.80;;;;;;;10.79;100.00;99855.56;5071899;28;20196;-66
2022/12/17 20:03:48;;;;;;;0.53;0.53;;;;;;;10.80;100.00;99860.63;5070320;28;20230;-65
2022/12/17 20:06:17;;;;;;;1.57;1.57;;;;;;;10.81;100.00;99861.50;5069090;28;20207;-65
2022/12/17 20:08:44;;;;;;;0.50;0.50;;;;;;;10.82;100.00;99864.03;5068577;28;20204;-65
2022/12/17 20:11:32;;;;;;;0.47;0.47;;;;;;;10.74;100.00;99845.41;5070375;28;20204;-65
2022/12/17 20:14:06;;;;;;;0.50;0.50;;;;;;;10.86;100.00;99849.38;5070212;28;20671;-66
2022/12/17 20:16:36;;;;;;;1.97;1.40;;;;;;;10.83;100.00;99832.34;5072297;28;20215;-66
2022/12/17 20:19:05;;;;;;;0.60;0.60;;;;;;;10.68;100.00;99808.81;5073013;28;20253;-65
2022/12/17 20:21:32;;;;;;;4.00;2.07;;;;;;;10.71;100.00;99788.22;5071316;28;20231;-65
2022/12/17 20:23:59;;;;;;;0.40;0.40;;;;;;;10.70;100.00;99750.63;5070258;28;20257;-66
2022/12/17 20:26:30;;;;;;;1.90;1.80;;;;;;;10.53;100.00;99728.81;5070228;28;20290;-66
2022/12/17 20:28:58;;;;;;;1.00;1.00;;;;;;;10.49;100.00;99752.88;5071428;28;20208;-65
2022/12/17 20:31:25;;;;;;;0.90;0.90;;;;;;;10.67;100.00;99784.03;5071020;28;20253;-65
2022/12/17 20:33:52;;;;;;;0.70;0.70;;;;;;;10.73;100.00;99807.81;5069361;28;20657;-65
2022/12/17 20:36:22;;;;;;;0.80;0.80;;;;;;;10.68;100.00;99811.38;5069803;28;20207;-65
2022/12/17 20:38:50;;;;;;;0.77;0.77;;;;;;;10.72;100.00;99841.19;5065898;28;20200;-66
2022/12/17 20:41:18;;;;;;;4.33;1.77;;;;;;;10.60;100.00;99877.38;5070603;28;20200;-65
2022/12/17 20:43:46;;;;;;;0.40;0.40;;;;;;;10.50;100.00;99881.88;5071708;28;20200;-66
2022/12/17 20:46:14;;;;;;;1.13;1.13;;;;;;;10.48;100.00;99874.19;5071374;28;20196;-65
2022/12/17 20:48:42;;;;;;;0.50;0.50;;;;;;;10.51;100.00;99874.13;5071956;28;20196;-65
2022/12/17 20:51:13;;;;;;;0.50;0.50;;;;;;;10.52;100.00;99874.97;5072193;28;20204;-65
2022/12/17 20:53:41;;;;;;;0.60;0.60;;;;;;;10.42;100.00;99833.34;5070963;28;20208;-66
2022/12/17 20:56:10;;;;;;;0.40;0.40;;;;;;;10.57;100.00;99851.78;5069348;28;20208;-66
2022/12/17 20:58:38;;;;;;;0.83;0.83;;;;;;;10.62;100.00;99844.84;5070840;28;20243;-66
2022/12/17 21:01:09;;;;;;;0.60;0.60;;;;;;;10.66;100.00;99849.03;5068387;28;20199;-66
2022/12/17 21:03:36;;;;;;;0.63;0.63;;;;;;;10.69;100.00;99854.09;5070038;28;20232;-65
2022/12/17 21:06:05;;;;;;;0.57;0.57;;;;;;;10.68;100.00;99860.94;5066890;28;20200;-66
2022/12/17 21:08:32;;;;;;;0.60;0.60;;;;;;;10.65;100.00;99849.91;5068724;28;20208;-66
2022/12/17 21:10:59;;;;;;;1.60;1.10;;;;;;;10.73;100.00;99873.63;5069333;28;20211;-66
2022/12/17 21:13:29;;;;;;;1.63;1.63;;;;;;;10.72;100.00;99872.81;5070719;28;20584;-65
2022/12/17 21:15:56;;;;;;;0.50;0.50;;;;;;;10.76;100.00;99883.84;5070225;28;20200;-66
2022/12/17 21:18:25;;;;;;;0.70;0.70;;;;;;;10.70;100.00;99874.56;5068269;28;20683;-65
2022/12/17 21:20:57;;;;;;;1.03;1.03;;;;;;;10.79;100.00;99888.91;5069858;28;20218;-65
2022/12/17 21:23:24;;;;;;;0.60;0.60;;;;;;;10.81;100.00;99892.25;5070416;28;20269;-66
2022/12/17 21:25:58;;;;;;;0.40;0.40;;;;;;;10.82;100.00;99899.09;5069903;28;20204;-65
2022/12/17 21:28:25;;;;;;;1.97;1.90;;;;;;;10.79;100.00;99899.16;5070224;28;20219;-65
2022/12/17 21:30:52;;;;;;;0.70;0.70;;;;;;;10.72;100.00;99897.59;5067698;28;20684;-65
2022/12/17 21:33:19;;;;;;;0.57;0.57;;;;;;;10.72;100.00;99900.19;5071331;28;20204;-65
2022/12/17 21:35:48;;;;;;;0.80;0.80;;;;;;;10.70;100.00;99899.34;5071539;28;20287;-65
2022/12/17 21:38:15;;;;;;;0.60;0.60;;;;;;;10.68;100.00;99911.38;5070750;28;20262;-65
2022/12/17 21:40:42;;;;;;;0.70;0.70;;;;;;;10.67;100.00;99909.66;5071610;28;20218;-65
2022/12/17 21:43:10;;;;;;;1.67;1.67;;;;;;;10.66;100.00;99903.72;5070987;28;20265;-65
2022/12/17 21:45:37;;;;;;;1.03;1.03;;;;;;;10.57;100.00;99908.19;5071117;28;20195;-66
2022/12/17 21:48:05;;;;;;;0.60;0.60;;;;;;;10.54;100.00;99903.97;5071223;28;20203;-66
2022/12/17 21:50:33;;;;;;;0.73;0.73;;;;;;;10.53;100.00;99898.00;5071256;28;20663;-66
2022/12/17 21:53:01;;;;;;;0.40;0.40;;;;;;;10.51;100.00;99901.47;5070740;28;20188;-65
2022/12/17 21:55:28;;;;;;;0.70;0.70;;;;;;;10.49;100.00;99891.28;5067062;28;20208;-65
2022/12/17 21:57:55;;;;;;;1.33;1.33;;;;;;;10.45;100.00;99904.19;5069971;28;20273;-65
2022/12/17 22:00:24;;;;;;;0.60;0.60;;;;;;;10.43;100.00;99911.91;5070696;28;20207;-66
2022/12/17 22:02:52;;;;;;;0.70;0.70;;;;;;;10.43;100.00;99906.78;5069588;28;20231;-65
2022/12/17 22:05:19;;;;;;;0.90;0.90;;;;;;;10.42;100.00;99909.38;5070776;28;20287;-66
2022/12/17 22:07:46;;;;;;;1.00;1.00;;;;;;;10.40;100.00;99911.97;5071163;28;20200;-65
2022/12/17 22:10:14;;;;;;;0.50;0.50;;;;;;;10.37;100.00;99912.03;5071365;28;20196;-65
2022/12/17 22:15:25;;;;;;;0.40;0.40;;;;;;;10.33;100.00;99913.00;5067879;28;20277;-66
2022/12/17 22:17:53;;;;;;;0.50;0.50;;;;;;;10.25;100.00;99917.41;5070805;28;20224;-65
2022/12/17 22:20:20;;;;;;;0.60;0.60;;;;;;;10.16;100.00;99917.59;5071022;28;20199;-65
2022/12/17 22:22:47;;;;;;;0.50;0.50;;;;;;;10.15;100.00;99915.91;5068398;28;20660;-65
2022/12/17 22:25:15;;;;;;;0.40;0.40;;;;;;;10.04;100.00;99912.69;5070440;28;20583;-65
2022/12/17 22:27:42;;;;;;;2.73;1.53;;;;;;;10.06;100.00;99923.75;5070575;28;20656;-65
2022/12/17 22:33:01;;;;;;;0.60;0.60;;;;;;;10.02;100.00;99929.81;5071237;28;20210;-65
2022/12/17 22:35:32;;;;;;;0.60;0.60;;;;;;;10.08;100.00;99945.03;5069194;28;20211;-65
2022/12/17 22:37:59;;;;;;;0.50;0.50;;;;;;;10.09;100.00;99948.47;5070486;28;20306;-65
2022/12/17 22:40:27;;;;;;;0.70;0.70;;;;;;;9.99;100.00;99950.34;5070758;28;20625;-65
2022/12/17 22:45:39;;;;;;;0.93;0.93;;;;;;;9.95;100.00;99953.88;5070289;28;20202;-66
2022/12/17 22:48:06;;;;;;;0.60;0.60;;;;;;;9.96;100.00;99960.66;5070774;28;20282;-65
2022/12/17 22:50:33;;;;;;;0.70;0.70;;;;;;;9.81;100.00;99933.63;5070669;28;20242;-65
2022/12/17 22:53:00;;;;;;;0.60;0.60;;;;;;;9.90;100.00;99948.81;5070060;28;20215;-65
2022/12/17 22:55:29;;;;;;;0.40;0.40;;;;;;;9.93;100.00;99956.44;5069868;28;20227;-65
2022/12/17 22:57:56;;;;;;;0.63;0.63;;;;;;;9.78;100.00;99925.16;5070058;28;20245;-65
2022/12/17 23:00:25;;;;;;;0.90;0.90;;;;;;;9.96;100.00;99960.66;5070390;28;20188;-65
2022/12/17 23:02:53;;;;;;;0.57;0.57;;;;;;;9.99;100.00;99958.88;5069746;28;20220;-65
2022/12/17 23:05:20;;;;;;;0.50;0.50;;;;;;;10.01;100.00;99949.47;5070332;28;20215;-65
2022/12/17 23:07:47;;;;;;;0.50;0.50;;;;;;;10.03;100.00;99957.13;5070489;28;20195;-65
2022/12/17 23:10:14;;;;;;;0.40;0.40;;;;;;;10.02;100.00;99955.41;5072084;28;20199;-65
2022/12/17 23:12:52;;;;;;;0.53;0.53;;;;;;;10.07;100.00;99958.75;5074123;28;20214;-65
2022/12/17 23:15:25;;;;;;;0.47;0.47;;;;;;;10.09;100.00;99957.00;5071298;28;20195;-65
2022/12/17 23:17:54;;;;;;;0.40;0.40;;;;;;;10.12;100.00;99961.19;5074645;28;20752;-65
2022/12/17 23:20:22;;;;;;;1.23;0.90;;;;;;;10.00;100.00;99941.81;5073674;28;20195;-65
2022/12/17 23:22:49;;;;;;;0.50;0.50;;;;;;;10.10;100.00;99952.72;5074095;28;20212;-65
2022/12/17 23:25:16;;;;;;;1.53;1.53;;;;;;;10.15;100.00;99954.34;5073523;28;20207;-65
2022/12/17 23:27:45;;;;;;;2.67;1.00;;;;;;;10.05;100.00;99946.84;5069452;28;20204;-65
2022/12/17 23:30:14;;;;;;;0.90;0.90;;;;;;;10.11;100.00;99952.69;5071030;28;20261;-65
2022/12/17 23:32:40;;;;;;;1.03;1.03;;;;;;;10.15;100.00;99961.19;5072438;28;20200;-65
2022/12/17 23:35:08;;;;;;;0.60;0.60;;;;;;;10.17;100.00;99955.16;5073508;28;20200;-65
2022/12/17 23:37:35;;;;;;;0.70;0.70;;;;;;;10.16;100.00;99963.72;5073388;28;20219;-65
2022/12/17 23:40:03;;;;;;;0.50;0.50;;;;;;;10.14;100.00;99968.03;5073738;28;20200;-65
2022/12/17 23:42:30;;;;;;;0.40;0.40;;;;;;;10.14;100.00;99965.47;5073424;28;20200;-65
2022/12/17 23:44:58;;;;;;;0.53;0.53;;;;;;;10.13;100.00;99976.56;5073015;28;20873;-65
2022/12/17 23:47:25;;;;;;;0.73;0.73;;;;;;;10.17;100.00;99970.53;5073386;28;20231;-66
2022/12/17 23:49:53;;;;;;;0.50;0.50;;;;;;;10.22;100.00;99989.22;5073546;28;20202;-65
2022/12/17 23:52:20;;;;;;;0.87;0.87;;;;;;;10.12;100.00;99956.94;5073398;28;20200;-65
2022/12/17 23:54:47;;;;;;;1.03;1.03;;;;;;;10.24;100.00;99991.78;5073016;28;20200;-65
2022/12/17 23:57:13;;;;;;;0.50;0.50;;;;;;;10.16;100.00;99984.22;5073339;28;20257;-65
2022/12/17 23:59:40;;;;;;;1.10;1.00;;;;;;;10.23;100.00;100000.31;5073724;28;20664;-65
